Time;durP1;ratioP1;P1;durP2;ratioP2;P2;SDS_P1;SDS_P2;PMS_P1;PMS_P2;Temp;Humidity;BMP_temperature;BMP_pressure;BME280_temperature;BME280_humidity;BME280_pressure;Samples;Min_cycle;Max_cycle;Signal;HPM_P1;HPM_P2
2022/09/04 00:00:18;;;;;;;4.95;3.10;;;;;;;16.22;100.00;100631.34;688097;28;1405;-61
2022/09/04 00:00:58;;;;;;;4.57;3.20;;;;;;;16.15;100.00;100626.22;686505;28;4635;-60
2022/09/04 00:02:03;;;;;;;4.07;3.03;;;;;;;16.04;100.00;100628.31;684733;28;1029;-60
2022/09/04 00:02:41;;;;;;;4.35;3.03;;;;;;;16.14;100.00;100626.25;681984;28;1124;-60
2022/09/04 00:03:20;;;;;;;4.00;2.90;;;;;;;16.10;100.00;100628.16;687143;28;1213;-61
2022/09/04 00:04:05;;;;;;;4.20;2.85;;;;;;;16.10;100.00;100632.53;687993;28;4405;-61
2022/09/04 00:04:50;;;;;;;3.90;3.15;;;;;;;16.14;100.00;100635.06;684497;28;1352;-63
2022/09/04 00:05:29;;;;;;;4.30;2.92;;;;;;;16.24;100.00;100626.88;684521;28;1168;-61
2022/09/04 00:05:53;;;;;;;4.72;3.08;;;;;;;16.20;100.00;100626.09;690802;28;1206;-60
2022/09/04 00:06:18;;;;;;;4.45;2.90;;;;;;;16.26;100.00;100633.84;688049;28;1073;-61
2022/09/04 00:06:54;;;;;;;4.50;3.00;;;;;;;16.39;100.00;100634.31;687717;28;4336;-60
2022/09/04 00:07:32;;;;;;;3.70;2.80;;;;;;;16.49;100.00;100640.19;687476;28;1918;-60
2022/09/04 00:07:56;;;;;;;3.80;3.00;;;;;;;16.41;100.00;100632.53;690763;28;1382;-62
2022/09/04 00:08:34;;;;;;;3.80;3.10;;;;;;;16.39;100.00;100636.97;693302;28;1127;-60
2022/09/04 00:09:04;;;;;;;4.28;2.95;;;;;;;16.52;100.00;100634.84;692736;28;1292;-61
2022/09/04 00:09:44;;;;;;;4.30;2.92;;;;;;;16.54;100.00;100640.94;690877;28;1185;-62
2022/09/04 00:10:28;;;;;;;4.07;3.03;;;;;;;16.46;100.00;100635.91;688940;28;4900;-60
2022/09/04 00:11:26;;;;;;;4.20;3.08;;;;;;;16.24;100.00;100638.31;686550;28;1187;-61
2022/09/04 00:12:09;;;;;;;5.13;3.20;;;;;;;16.12;100.00;100638.66;687593;28;1274;-61
2022/09/04 00:12:37;;;;;;;4.30;2.90;;;;;;;16.25;100.00;100639.16;688286;28;1231;-61
2022/09/04 00:13:21;;;;;;;4.20;3.15;;;;;;;16.24;100.00;100632.13;687557;28;4265;-60
2022/09/04 00:13:49;;;;;;;4.22;3.08;;;;;;;16.30;100.00;100643.38;688382;28;1234;-61
2022/09/04 00:14:29;;;;;;;3.83;2.88;;;;;;;16.28;100.00;100639.06;690934;28;1532;-61
2022/09/04 00:15:00;;;;;;;4.18;3.13;;;;;;;16.29;100.00;100631.09;690434;28;1322;-61
2022/09/04 00:15:34;;;;;;;4.00;3.22;;;;;;;16.23;100.00;100639.19;690569;28;1462;-62
2022/09/04 00:16:08;;;;;;;4.10;3.10;;;;;;;16.14;100.00;100642.97;689040;28;4354;-61
2022/09/04 00:16:41;;;;;;;5.03;3.30;;;;;;;16.17;100.00;100649.91;687444;28;3518;-61
2022/09/04 00:17:11;;;;;;;3.88;3.00;;;;;;;16.28;100.00;100646.97;686339;28;1090;-61
2022/09/04 00:17:43;;;;;;;4.13;3.03;;;;;;;16.40;100.00;100643.97;686166;28;1278;-60
2022/09/04 00:18:25;;;;;;;3.92;3.00;;;;;;;16.40;100.00;100645.78;687786;28;1012;-60
2022/09/04 00:18:53;;;;;;;4.32;3.13;;;;;;;16.32;100.00;100644.22;687557;28;4315;-60
2022/09/04 00:19:44;;;;;;;4.20;3.10;;;;;;;16.22;100.00;100649.81;687251;28;1061;-61
2022/09/04 00:20:11;;;;;;;4.63;3.00;;;;;;;16.12;100.00;100647.41;687679;28;1243;-61
2022/09/04 00:21:00;;;;;;;4.30;3.00;;;;;;;16.11;100.00;100650.94;688402;28;1318;-62
2022/09/04 00:21:39;;;;;;;4.30;3.30;;;;;;;16.07;100.00;100653.72;685260;28;1226;-61
2022/09/04 00:22:33;;;;;;;4.82;3.20;;;;;;;16.10;100.00;100649.25;687958;28;4717;-62
2022/09/04 00:23:12;;;;;;;4.07;3.00;;;;;;;16.17;100.00;100653.44;683311;28;1295;-61
2022/09/04 00:23:50;;;;;;;3.90;2.88;;;;;;;16.11;100.00;100653.59;687787;28;1179;-61
2022/09/04 00:24:17;;;;;;;4.18;3.10;;;;;;;16.15;100.00;100649.09;686056;28;1313;-60
2022/09/04 00:24:41;;;;;;;5.07;3.05;;;;;;;16.13;100.00;100653.53;688903;28;1143;-62
2022/09/04 00:25:08;;;;;;;4.65;3.17;;;;;;;16.17;100.00;100650.78;687438;28;4731;-61
2022/09/04 00:25:49;;;;;;;4.45;3.10;;;;;;;16.18;100.00;100654.28;686178;28;1179;-61
2022/09/04 00:26:26;;;;;;;4.53;3.08;;;;;;;16.31;100.00;100647.75;690101;28;1294;-61
2022/09/04 00:27:04;;;;;;;3.97;3.03;;;;;;;16.32;100.00;100654.78;688036;28;1683;-61
2022/09/04 00:27:32;;;;;;;4.55;3.30;;;;;;;16.26;100.00;100654.94;686033;28;1946;-59
2022/09/04 00:28:03;;;;;;;4.03;3.08;;;;;;;16.33;100.00;100648.56;686546;28;4445;-61
2022/09/04 00:28:35;;;;;;;4.63;3.08;;;;;;;16.33;100.00;100651.19;684646;28;1026;-60
2022/09/04 00:29:02;;;;;;;3.70;3.05;;;;;;;16.40;100.00;100651.03;685177;28;1311;-61
2022/09/04 00:29:41;;;;;;;4.40;2.97;;;;;;;16.37;100.00;100646.72;687391;28;1036;-61
2022/09/04 00:30:10;;;;;;;4.10;3.20;;;;;;;16.23;100.00;100649.75;690643;28;1204;-60
2022/09/04 00:30:34;;;;;;;4.13;3.03;;;;;;;16.19;100.00;100658.66;689438;28;1325;-61
2022/09/04 00:31:03;;;;;;;4.38;2.97;;;;;;;16.23;100.00;100651.53;692001;28;4296;-61
2022/09/04 00:31:37;;;;;;;4.15;3.00;;;;;;;16.16;100.00;100654.34;692131;28;1031;-60
2022/09/04 00:32:07;;;;;;;4.00;3.00;;;;;;;16.30;100.00;100655.72;688275;28;1036;-61
2022/09/04 00:32:33;;;;;;;3.80;2.92;;;;;;;16.23;100.00;100655.03;688696;28;1358;-62
2022/09/04 00:33:07;;;;;;;4.03;3.20;;;;;;;16.23;100.00;100654.16;688207;28;1147;-61
2022/09/04 00:33:48;;;;;;;4.30;2.92;;;;;;;16.43;100.00;100656.22;688217;28;912;-62
2022/09/04 00:34:55;;;;;;;4.10;3.00;;;;;;;16.43;100.00;100666.78;687252;28;4852;-61
2022/09/04 00:35:21;;;;;;;4.22;3.00;;;;;;;16.34;100.00;100658.22;683055;28;1159;-60
2022/09/04 00:36:02;;;;;;;3.90;3.00;;;;;;;16.19;100.00;100661.28;682737;28;1129;-60
2022/09/04 00:36:26;;;;;;;4.72;3.20;;;;;;;16.10;100.00;100665.06;683696;28;1201;-61
2022/09/04 00:36:53;;;;;;;4.55;3.20;;;;;;;16.09;100.00;100665.06;683681;28;4554;-61
2022/09/04 00:37:20;;;;;;;4.25;2.95;;;;;;;16.08;100.00;100656.31;686492;28;1106;-62
2022/09/04 00:38:14;;;;;;;4.38;2.97;;;;;;;16.14;100.00;100658.78;686501;28;1120;-60
2022/09/04 00:38:46;;;;;;;4.40;2.90;;;;;;;16.18;100.00;100662.19;687911;28;1277;-61
2022/09/04 00:39:33;;;;;;;3.88;2.90;;;;;;;16.09;100.00;100652.78;687934;28;1077;-62
2022/09/04 00:40:12;;;;;;;4.20;3.17;;;;;;;16.08;100.00;100656.31;687563;28;4294;-60
2022/09/04 00:40:36;;;;;;;3.97;2.97;;;;;;;16.12;100.00;100652.69;687689;28;2176;-62
2022/09/04 00:41:41;;;;;;;4.80;3.15;;;;;;;16.07;100.00;100651.09;683876;28;971;-61
2022/09/04 00:42:33;;;;;;;3.90;3.10;;;;;;;16.01;100.00;100654.75;685553;28;963;-62
2022/09/04 00:43:12;;;;;;;4.20;2.97;;;;;;;16.08;100.00;100660.75;688992;28;4499;-60
2022/09/04 00:43:41;;;;;;;4.30;3.03;;;;;;;16.07;100.00;100664.28;686838;28;1060;-60
2022/09/04 00:44:26;;;;;;;3.92;3.03;;;;;;;16.19;100.00;100658.66;687126;28;1110;-61
2022/09/04 00:45:06;;;;;;;4.70;3.00;;;;;;;16.13;100.00;100656.19;686979;28;1410;-62
2022/09/04 00:45:26;;;;;;;4.00;2.92;;;;;;;16.07;100.00;100670.41;686283;28;1120;-61
2022/09/04 00:45:49;;;;;;;4.13;3.10;;;;;;;15.99;100.00;100659.19;687338;28;4380;-61
2022/09/04 00:46:36;;;;;;;4.20;3.13;;;;;;;15.98;100.00;100655.72;687465;28;1064;-60
2022/09/04 00:47:20;;;;;;;3.80;2.92;;;;;;;16.06;100.00;100655.50;688202;28;896;-59
2022/09/04 00:48:09;;;;;;;4.30;2.90;;;;;;;16.01;100.00;100662.66;688218;28;820;-61
2022/09/04 00:48:38;;;;;;;4.43;3.13;;;;;;;16.02;100.00;100660.88;688196;28;904;-61
2022/09/04 00:49:01;;;;;;;4.07;3.00;;;;;;;16.07;100.00;100659.84;687222;28;4900;-61
2022/09/04 00:49:39;;;;;;;4.03;3.00;;;;;;;16.02;100.00;100666.16;688345;28;1034;-60
2022/09/04 00:50:10;;;;;;;4.13;3.13;;;;;;;16.15;100.00;100655.22;688003;28;1256;-62
2022/09/04 00:51:01;;;;;;;4.00;3.08;;;;;;;16.07;100.00;100656.38;687681;28;995;-61
2022/09/04 00:51:39;;;;;;;4.15;3.28;;;;;;;16.06;100.00;100662.53;687571;28;1033;-62
2022/09/04 00:52:18;;;;;;;4.18;2.90;;;;;;;16.07;100.00;100659.84;687533;28;4805;-61
2022/09/04 00:52:58;;;;;;;4.25;2.90;;;;;;;16.04;100.00;100661.72;687226;28;838;-60
2022/09/04 00:53:57;;;;;;;3.90;3.10;;;;;;;15.99;100.00;100661.84;687581;28;1024;-61
2022/09/04 00:54:40;;;;;;;3.83;3.00;;;;;;;16.08;100.00;100658.94;684990;28;900;-61
2022/09/04 00:55:06;;;;;;;3.97;3.00;;;;;;;16.09;100.00;100662.44;683510;28;4733;-60
2022/09/04 00:55:57;;;;;;;4.40;3.10;;;;;;;16.05;100.00;100660.78;687625;28;1041;-61
2022/09/04 00:56:26;;;;;;;3.60;2.60;;;;;;;16.24;100.00;100659.41;687531;28;911;-62
2022/09/04 00:57:02;;;;;;;4.30;3.15;;;;;;;16.15;100.00;100663.13;688054;28;892;-60
2022/09/04 00:57:32;;;;;;;3.70;2.80;;;;;;;16.29;100.00;100669.81;688082;28;1092;-61
2022/09/04 00:58:44;;;;;;;4.00;2.92;;;;;;;16.20;100.00;100670.06;685989;28;4289;-60
2022/09/04 00:59:14;;;;;;;4.10;2.90;;;;;;;16.14;100.00;100665.81;684920;28;845;-61
2022/09/04 01:00:14;;;;;;;5.20;3.05;;;;;;;16.15;100.00;100668.41;688058;28;1422;-61
2022/09/04 01:00:35;;;;;;;4.60;3.08;;;;;;;16.12;100.00;100662.38;676155;28;2757;-62
2022/09/04 01:00:58;;;;;;;5.05;3.08;;;;;;;16.10;100.00;100665.06;673833;28;4368;-62
2022/09/04 01:01:22;;;;;;;5.00;3.00;;;;;;;16.06;100.00;100667.81;684527;28;1192;-62
2022/09/04 01:01:46;;;;;;;3.72;2.95;;;;;;;16.04;100.00;100665.22;686792;28;1637;-62
2022/09/04 01:02:35;;;;;;;4.50;3.17;;;;;;;15.98;100.00;100670.69;685276;28;1503;-62
2022/09/04 01:03:14;;;;;;;4.78;3.00;;;;;;;15.91;100.00;100669.09;686444;28;1973;-60
2022/09/04 01:03:54;;;;;;;4.50;3.30;;;;;;;15.95;100.00;100671.63;684202;28;941;-62
2022/09/04 01:04:34;;;;;;;4.60;3.10;;;;;;;15.97;100.00;100667.16;678678;28;6332;-61
2022/09/04 01:05:32;;;;;;;4.20;3.10;;;;;;;16.17;100.00;100665.72;678909;29;1016;-61
2022/09/04 01:06:17;;;;;;;4.38;3.20;;;;;;;16.06;100.00;100668.69;685204;28;987;-61
2022/09/04 01:07:05;;;;;;;5.20;2.97;;;;;;;15.97;100.00;100672.44;690538;28;1612;-61
2022/09/04 01:07:48;;;;;;;4.10;3.13;;;;;;;16.07;100.00;100670.41;689609;28;5024;-61
2022/09/04 01:08:40;;;;;;;3.95;2.97;;;;;;;16.18;100.00;100659.56;689200;28;908;-61
2022/09/04 01:09:30;;;;;;;3.85;3.05;;;;;;;16.06;100.00;100667.81;687784;28;1223;-61
2022/09/04 01:10:07;;;;;;;4.25;3.05;;;;;;;16.05;100.00;100668.72;687178;28;4306;-60
2022/09/04 01:10:55;;;;;;;3.83;3.10;;;;;;;16.15;100.00;100668.41;687303;28;987;-61
2022/09/04 01:11:40;;;;;;;3.83;2.80;;;;;;;16.31;100.00;100673.25;687003;28;1156;-60
2022/09/04 01:12:28;;;;;;;4.47;2.88;;;;;;;16.25;100.00;100662.91;687790;28;955;-61
2022/09/04 01:13:15;;;;;;;4.22;3.05;;;;;;;16.17;100.00;100665.72;686450;28;4632;-61
2022/09/04 01:13:45;;;;;;;4.60;2.90;;;;;;;16.15;100.00;100664.94;687982;28;1262;-60
2022/09/04 01:14:28;;;;;;;4.85;3.00;;;;;;;16.09;100.00;100673.00;686358;28;959;-61
2022/09/04 01:14:58;;;;;;;4.50;3.22;;;;;;;16.03;100.00;100670.53;687290;28;1219;-61
2022/09/04 01:15:38;;;;;;;4.72;3.30;;;;;;;16.04;100.00;100669.63;686234;28;1067;-62
2022/09/04 01:16:14;;;;;;;5.68;2.92;;;;;;;16.26;100.00;100668.13;687223;28;4686;-60
2022/09/04 01:16:40;;;;;;;5.00;2.90;;;;;;;16.24;100.00;100672.59;687134;28;984;-62
2022/09/04 01:17:23;;;;;;;4.10;3.00;;;;;;;16.17;100.00;100678.91;688111;28;1125;-60
2022/09/04 01:18:14;;;;;;;4.20;3.10;;;;;;;16.09;100.00;100675.63;686486;28;989;-61
2022/09/04 01:18:55;;;;;;;4.13;2.97;;;;;;;16.01;100.00;100678.50;687624;28;922;-61
2022/09/04 01:19:27;;;;;;;4.25;3.20;;;;;;;15.96;100.00;100678.63;687836;28;5212;-60
2022/09/04 01:20:19;;;;;;;4.15;3.10;;;;;;;15.92;100.00;100681.38;692568;28;1074;-61
2022/09/04 01:21:10;;;;;;;4.72;3.33;;;;;;;15.89;100.00;100682.31;689631;28;1174;-60
2022/09/04 01:21:49;;;;;;;4.38;3.15;;;;;;;15.89;100.00;100682.31;687462;28;1174;-61
2022/09/04 01:22:47;;;;;;;3.97;3.22;;;;;;;15.83;100.00;100682.47;686534;28;5059;-62
2022/09/04 01:23:34;;;;;;;4.30;3.22;;;;;;;15.88;100.00;100685.88;687781;28;1299;-60
2022/09/04 01:24:16;;;;;;;5.00;3.40;;;;;;;15.90;100.00;100689.31;687857;28;1106;-61
2022/09/04 01:25:01;;;;;;;4.50;3.30;;;;;;;15.94;100.00;100679.56;687189;28;1283;-60
2022/09/04 01:25:46;;;;;;;4.50;3.30;;;;;;;16.05;100.00;100680.13;686840;28;4917;-61
2022/09/04 01:26:37;;;;;;;4.15;3.08;;;;;;;16.08;100.00;100682.69;686456;28;1012;-61
2022/09/04 01:27:34;;;;;;;4.85;3.05;;;;;;;16.17;100.00;100684.19;684233;28;1180;-62
2022/09/04 01:28:03;;;;;;;3.42;2.83;;;;;;;16.27;100.00;100669.84;689445;28;5249;-61
2022/09/04 01:28:33;;;;;;;4.80;3.20;;;;;;;16.21;100.00;100672.66;690083;28;1263;-63
2022/09/04 01:29:42;;;;;;;4.60;3.40;;;;;;;16.19;100.00;100674.47;690389;28;1069;-60
2022/09/04 01:30:06;;;;;;;4.22;2.90;;;;;;;16.22;100.00;100678.81;685349;28;1464;-60
2022/09/04 01:30:33;;;;;;;4.25;3.10;;;;;;;16.20;100.00;100675.34;690123;28;1462;-61
2022/09/04 01:31:07;;;;;;;4.45;3.17;;;;;;;16.19;100.00;100685.03;687366;28;5269;-61
2022/09/04 01:31:51;;;;;;;4.55;3.08;;;;;;;16.10;100.00;100680.88;687598;28;888;-61
2022/09/04 01:32:36;;;;;;;4.22;3.05;;;;;;;16.12;100.00;100680.84;689068;28;1416;-62
2022/09/04 01:33:09;;;;;;;4.10;3.20;;;;;;;16.09;100.00;100678.25;692670;28;1086;-59
2022/09/04 01:33:53;;;;;;;5.20;3.30;;;;;;;16.07;100.00;100685.38;692975;28;864;-61
2022/09/04 01:34:29;;;;;;;4.45;3.17;;;;;;;16.06;100.00;100684.50;686590;28;4777;-60
2022/09/04 01:35:01;;;;;;;4.35;3.10;;;;;;;16.13;100.00;100682.53;687537;28;1043;-62
2022/09/04 01:35:36;;;;;;;3.90;3.00;;;;;;;16.15;100.00;100683.38;685954;28;1690;-62
2022/09/04 01:36:02;;;;;;;4.10;3.28;;;;;;;16.04;100.00;100683.69;687282;28;983;-60
2022/09/04 01:36:46;;;;;;;5.35;3.03;;;;;;;16.07;100.00;100683.59;687024;28;971;-61
2022/09/04 01:37:40;;;;;;;4.38;3.10;;;;;;;16.18;100.00;100680.66;686167;28;5066;-60
2022/09/04 01:38:14;;;;;;;3.97;3.10;;;;;;;16.26;100.00;100675.19;687415;28;889;-60
2022/09/04 01:38:55;;;;;;;4.32;3.17;;;;;;;16.16;100.00;100685.13;687296;28;1004;-61
2022/09/04 01:39:19;;;;;;;4.63;3.40;;;;;;;16.12;100.00;100683.47;686265;28;1244;-60
2022/09/04 01:39:44;;;;;;;4.68;3.30;;;;;;;16.22;100.00;100690.22;686651;28;4303;-61
2022/09/04 01:40:37;;;;;;;4.50;2.95;;;;;;;16.30;100.00;100685.59;687244;28;1091;-61
2022/09/04 01:41:15;;;;;;;4.65;3.30;;;;;;;16.25;100.00;100678.72;687254;28;1034;-61
2022/09/04 01:41:44;;;;;;;4.90;3.33;;;;;;;16.24;100.00;100687.53;687007;28;1341;-62
2022/09/04 01:42:16;;;;;;;4.78;3.15;;;;;;;16.13;100.00;100690.47;687616;28;1071;-61
2022/09/04 01:42:55;;;;;;;3.85;3.17;;;;;;;16.10;100.00;100693.19;687146;28;998;-60
2022/09/04 01:43:19;;;;;;;4.05;3.10;;;;;;;16.05;100.00;100690.69;687129;28;4701;-62
2022/09/04 01:43:41;;;;;;;4.07;3.00;;;;;;;16.11;100.00;100694.94;687258;28;1123;-61
2022/09/04 01:44:05;;;;;;;4.18;2.90;;;;;;;16.18;100.00;100693.84;687216;28;1104;-60
2022/09/04 01:44:26;;;;;;;3.63;2.90;;;;;;;16.22;100.00;100681.44;687013;28;1300;-60
2022/09/04 01:44:47;;;;;;;5.10;3.30;;;;;;;16.20;100.00;100696.44;686965;28;1218;-61
2022/09/04 01:45:09;;;;;;;4.88;3.10;;;;;;;16.16;100.00;100693.88;684612;28;1020;-60
2022/09/04 01:45:41;;;;;;;4.55;3.03;;;;;;;16.16;100.00;100687.75;684992;28;1146;-60
2022/09/04 01:46:10;;;;;;;4.10;2.95;;;;;;;16.21;100.00;100693.75;684682;28;4754;-61
2022/09/04 01:46:52;;;;;;;3.97;3.10;;;;;;;16.23;100.00;100691.09;685001;28;1150;-61
2022/09/04 01:47:28;;;;;;;4.00;3.10;;;;;;;16.26;100.00;100691.84;686765;28;1833;-61
2022/09/04 01:47:56;;;;;;;4.22;3.00;;;;;;;16.25;100.00;100694.53;686591;28;1210;-60
2022/09/04 01:48:26;;;;;;;5.28;3.30;;;;;;;16.30;100.00;100695.28;689035;28;1210;-61
2022/09/04 01:48:59;;;;;;;4.10;3.13;;;;;;;16.22;100.00;100698.13;690393;28;4707;-62
2022/09/04 01:49:36;;;;;;;3.95;3.13;;;;;;;16.14;100.00;100690.44;691449;28;1070;-62
2022/09/04 01:50:03;;;;;;;4.60;3.20;;;;;;;16.13;100.00;100688.72;693093;28;1233;-61
2022/09/04 01:50:25;;;;;;;4.13;3.10;;;;;;;16.17;100.00;100700.91;690305;28;948;-60
2022/09/04 01:50:52;;;;;;;4.10;3.20;;;;;;;16.12;100.00;100689.59;683066;28;1396;-61
2022/09/04 01:51:43;;;;;;;4.00;2.92;;;;;;;16.19;100.00;100690.31;684214;28;1083;-60
2022/09/04 01:52:06;;;;;;;4.22;3.17;;;;;;;16.21;100.00;100693.75;682574;28;4926;-62
2022/09/04 01:53:05;;;;;;;4.53;3.40;;;;;;;16.14;100.00;100695.72;683563;28;1105;-61
2022/09/04 01:53:28;;;;;;;4.50;3.40;;;;;;;16.05;100.00;100700.34;686038;28;1368;-60
2022/09/04 01:54:01;;;;;;;4.30;3.28;;;;;;;16.14;100.00;100697.47;684893;28;1031;-60
2022/09/04 01:54:44;;;;;;;4.28;3.15;;;;;;;16.28;100.00;100691.81;686379;28;1092;-61
2022/09/04 01:55:42;;;;;;;4.50;2.97;;;;;;;16.24;100.00;100696.31;686180;28;4827;-60
2022/09/04 01:56:43;;;;;;;5.30;3.10;;;;;;;16.13;100.00;100695.72;681998;28;1275;-61
2022/09/04 01:57:22;;;;;;;3.83;2.97;;;;;;;16.07;100.00;100696.75;684964;28;1242;-60
2022/09/04 01:58:06;;;;;;;4.22;3.10;;;;;;;16.15;100.00;100696.56;684310;28;4509;-61
2022/09/04 01:58:33;;;;;;;4.68;3.30;;;;;;;16.27;100.00;100690.97;687235;28;1424;-61
2022/09/04 01:59:00;;;;;;;3.92;3.03;;;;;;;16.30;100.00;100693.50;687745;28;1324;-62
2022/09/04 02:00:02;;;;;;;4.35;3.25;;;;;;;16.19;100.00;100700.00;686571;28;1184;-60
2022/09/04 02:00:30;;;;;;;4.05;3.08;;;;;;;16.04;100.00;100690.72;684797;28;1054;-61
2022/09/04 02:01:16;;;;;;;4.30;3.17;;;;;;;15.93;100.00;100699.78;681495;28;4632;-60
2022/09/04 02:02:16;;;;;;;3.92;2.97;;;;;;;16.02;100.00;100705.72;683064;28;2021;-61
2022/09/04 02:02:52;;;;;;;4.40;3.42;;;;;;;15.98;100.00;100711.06;686088;28;1424;-61
2022/09/04 02:03:25;;;;;;;3.70;2.75;;;;;;;16.13;100.00;100701.91;686875;28;1225;-61
2022/09/04 02:04:06;;;;;;;4.10;2.90;;;;;;;16.24;100.00;100703.34;687440;28;4531;-61
2022/09/04 02:04:33;;;;;;;4.45;3.00;;;;;;;16.28;100.00;100699.72;686729;28;963;-61
2022/09/04 02:05:06;;;;;;;4.03;3.20;;;;;;;16.26;100.00;100704.19;687822;28;1243;-61
2022/09/04 02:05:35;;;;;;;4.30;3.08;;;;;;;16.10;100.00;100704.63;689912;28;1387;-61
2022/09/04 02:06:27;;;;;;;4.30;3.10;;;;;;;16.01;100.00;100710.13;686275;28;1469;-60
2022/09/04 02:07:01;;;;;;;4.65;3.10;;;;;;;15.71;100.00;100709.97;686740;28;4333;-60
2022/09/04 02:07:34;;;;;;;4.65;3.35;;;;;;;15.61;100.00;100701.44;685854;28;1978;-60
2022/09/04 02:08:02;;;;;;;5.05;3.25;;;;;;;15.58;100.00;100704.16;685798;28;1050;-61
2022/09/04 02:08:55;;;;;;;5.20;3.15;;;;;;;15.61;100.00;100709.34;684875;28;1223;-61
2022/09/04 02:09:47;;;;;;;4.75;3.20;;;;;;;15.68;100.00;100710.06;685941;28;972;-60
2022/09/04 02:10:34;;;;;;;4.20;3.15;;;;;;;15.86;100.00;100714.03;685828;28;4946;-61
2022/09/04 02:11:09;;;;;;;4.70;3.00;;;;;;;15.91;100.00;100706.88;686915;28;892;-62
2022/09/04 02:11:30;;;;;;;3.80;2.90;;;;;;;15.93;100.00;100712.97;690595;28;983;-60
2022/09/04 02:12:10;;;;;;;4.40;3.35;;;;;;;15.90;100.00;100715.69;687079;28;1279;-60
2022/09/04 02:12:41;;;;;;;3.80;3.10;;;;;;;15.94;100.00;100716.47;687093;28;1431;-60
2022/09/04 02:13:39;;;;;;;4.07;3.17;;;;;;;16.04;100.00;100722.38;687618;28;4705;-62
2022/09/04 02:14:21;;;;;;;5.03;3.30;;;;;;;15.81;100.00;100722.06;688229;28;877;-62
2022/09/04 02:15:05;;;;;;;4.45;3.40;;;;;;;15.63;100.00;100722.47;688224;28;1163;-61
2022/09/04 02:15:44;;;;;;;3.95;3.28;;;;;;;15.71;100.00;100722.28;691289;28;1003;-61
2022/09/04 02:16:13;;;;;;;4.85;3.15;;;;;;;15.72;100.00;100721.41;690205;28;4832;-62
2022/09/04 02:17:00;;;;;;;4.32;3.22;;;;;;;15.63;100.00;100722.47;691414;28;1258;-61
2022/09/04 02:17:36;;;;;;;4.50;3.15;;;;;;;15.58;100.00;100719.13;688342;28;1184;-60
2022/09/04 02:18:18;;;;;;;4.55;3.30;;;;;;;15.74;100.00;100724.84;688097;28;814;-61
2022/09/04 02:18:50;;;;;;;4.32;3.25;;;;;;;16.01;100.00;100723.31;686784;28;4401;-59
2022/09/04 02:19:38;;;;;;;3.58;2.97;;;;;;;16.08;100.00;100724.03;688278;28;1044;-61
2022/09/04 02:20:09;;;;;;;4.10;3.00;;;;;;;15.89;100.00;100729.75;688011;28;1044;-61
2022/09/04 02:20:30;;;;;;;4.20;3.20;;;;;;;15.77;100.00;100724.75;687659;28;1289;-61
2022/09/04 02:21:26;;;;;;;4.77;3.10;;;;;;;15.61;100.00;100729.56;687606;28;988;-61
2022/09/04 02:22:48;;;;;;;4.10;3.33;;;;;;;15.55;100.00;100732.34;687262;28;4460;-61
2022/09/04 02:23:26;;;;;;;5.38;3.30;;;;;;;15.57;100.00;100726.13;671540;29;1453;-60
2022/09/04 02:24:03;;;;;;;4.28;3.20;;;;;;;15.61;100.00;100726.94;680012;29;1447;-60
2022/09/04 02:24:49;;;;;;;4.50;3.20;;;;;;;15.47;100.00;100727.28;679731;29;1001;-61
2022/09/04 02:25:29;;;;;;;4.38;3.25;;;;;;;15.58;100.00;100724.38;678822;29;4977;-61
2022/09/04 02:25:49;;;;;;;3.78;2.90;;;;;;;15.64;100.00;100726.84;679486;29;1344;-61
2022/09/04 02:26:44;;;;;;;4.27;3.10;;;;;;;15.56;100.00;100726.16;679114;29;1017;-61
2022/09/04 02:27:11;;;;;;;4.75;3.40;;;;;;;15.58;100.00;100729.66;680028;28;2077;-61
2022/09/04 02:28:02;;;;;;;4.25;3.10;;;;;;;15.74;100.00;100730.13;679679;29;1964;-61
2022/09/04 02:28:49;;;;;;;4.78;3.10;;;;;;;15.87;100.00;100734.22;678654;29;5198;-61
2022/09/04 02:29:15;;;;;;;4.13;3.08;;;;;;;15.81;100.00;100731.72;678960;28;1098;-61
2022/09/04 02:29:58;;;;;;;4.53;3.17;;;;;;;15.72;100.00;100734.59;682635;28;928;-62
2022/09/04 02:30:19;;;;;;;4.20;3.10;;;;;;;15.62;100.00;100737.44;687425;28;1083;-60
2022/09/04 02:31:04;;;;;;;4.25;3.00;;;;;;;15.70;100.00;100731.09;688704;28;1442;-61
2022/09/04 02:31:39;;;;;;;5.78;3.00;;;;;;;15.73;100.00;100736.28;687803;28;1123;-60
2022/09/04 02:32:38;;;;;;;4.70;3.50;;;;;;;15.72;100.00;100732.81;688254;28;1072;-62
2022/09/04 02:33:02;;;;;;;4.40;3.20;;;;;;;15.72;100.00;100738.06;689099;28;1008;-60
2022/09/04 02:33:25;;;;;;;4.78;3.20;;;;;;;15.64;100.00;100735.59;688549;28;1468;-61
2022/09/04 02:33:59;;;;;;;4.60;3.20;;;;;;;15.57;100.00;100731.41;682102;28;7619;-61
2022/09/04 02:34:25;;;;;;;5.38;3.30;;;;;;;15.55;100.00;100734.97;685941;28;1483;-63
2022/09/04 02:35:00;;;;;;;4.40;3.30;;;;;;;15.50;100.00;100735.09;687098;28;7889;-62
2022/09/04 02:35:32;;;;;;;4.10;3.33;;;;;;;15.44;100.00;100735.25;689830;28;1111;-66
2022/09/04 02:36:07;;;;;;;4.90;3.28;;;;;;;15.44;100.00;100732.63;691603;28;866;-60
2022/09/04 02:36:46;;;;;;;4.68;3.20;;;;;;;15.43;100.00;100734.38;691132;28;831;-62
2022/09/04 02:37:29;;;;;;;3.92;3.30;;;;;;;15.43;100.00;100725.63;688112;28;4840;-61
2022/09/04 02:38:07;;;;;;;4.18;3.13;;;;;;;15.51;100.00;100734.19;687867;28;5732;-61
2022/09/04 02:38:30;;;;;;;3.80;3.10;;;;;;;15.55;100.00;100730.59;688321;28;1007;-61
2022/09/04 02:39:15;;;;;;;4.20;3.10;;;;;;;15.46;100.00;100736.06;687037;28;1285;-61
2022/09/04 02:39:48;;;;;;;4.60;3.20;;;;;;;15.38;100.00;100730.13;686192;28;4559;-60
2022/09/04 02:40:34;;;;;;;4.35;3.33;;;;;;;15.40;100.00;100738.88;687469;28;1117;-60
2022/09/04 02:41:25;;;;;;;4.07;3.10;;;;;;;15.43;100.00;100730.88;686072;28;1007;-61
2022/09/04 02:42:02;;;;;;;4.68;3.40;;;;;;;15.56;100.00;100732.31;687333;28;928;-60
2022/09/04 02:42:50;;;;;;;5.10;3.10;;;;;;;15.56;100.00;100732.31;687456;28;1083;-61
2022/09/04 02:43:34;;;;;;;3.95;3.20;;;;;;;15.39;100.00;100734.50;687384;28;4794;-60
2022/09/04 02:44:09;;;;;;;4.70;3.40;;;;;;;15.28;100.00;100735.59;688103;28;2309;-61
2022/09/04 02:44:51;;;;;;;4.75;3.25;;;;;;;15.19;100.00;100733.19;687753;28;801;-60
2022/09/04 02:45:14;;;;;;;4.35;3.40;;;;;;;15.19;100.00;100727.03;686382;28;2003;-61
2022/09/04 02:46:03;;;;;;;4.75;3.50;;;;;;;15.17;100.00;100736.75;686854;28;4408;-61
2022/09/04 02:46:35;;;;;;;4.40;3.40;;;;;;;15.23;100.00;100736.59;686196;28;916;-63
2022/09/04 02:47:16;;;;;;;5.10;3.33;;;;;;;15.33;100.00;100736.34;683608;28;1350;-60
2022/09/04 02:48:00;;;;;;;4.40;3.20;;;;;;;15.49;100.00;100736.00;683420;28;1323;-61
2022/09/04 02:48:50;;;;;;;4.45;3.10;;;;;;;15.49;100.00;100741.25;686488;28;1068;-61
2022/09/04 02:49:37;;;;;;;4.75;3.20;;;;;;;15.58;100.00;100733.16;686715;28;4787;-61
2022/09/04 02:50:02;;;;;;;5.03;3.15;;;;;;;15.61;100.00;100734.84;687908;28;947;-61
2022/09/04 02:50:37;;;;;;;4.85;3.50;;;;;;;15.52;100.00;100735.06;687877;28;1009;-60
2022/09/04 02:51:17;;;;;;;4.85;3.40;;;;;;;15.41;100.00;100744.09;688134;28;1182;-62
2022/09/04 02:51:37;;;;;;;5.32;3.60;;;;;;;15.30;100.00;100744.34;687031;28;4395;-61
2022/09/04 02:52:32;;;;;;;4.73;3.50;;;;;;;15.15;100.00;100736.78;688404;28;1163;-61
2022/09/04 02:53:07;;;;;;;5.20;3.65;;;;;;;15.09;100.00;100743.06;685252;28;1289;-60
2022/09/04 02:53:58;;;;;;;4.20;3.42;;;;;;;15.04;100.00;100738.81;684865;28;1342;-61
2022/09/04 02:54:42;;;;;;;4.90;3.70;;;;;;;15.02;100.00;100735.31;690657;28;2075;-62
2022/09/04 02:55:17;;;;;;;4.47;3.63;;;;;;;15.07;100.00;100736.09;692414;28;4879;-60
2022/09/04 02:56:07;;;;;;;4.43;3.70;;;;;;;15.09;100.00;100739.53;693665;28;902;-61
2022/09/04 02:56:47;;;;;;;4.95;3.47;;;;;;;15.17;100.00;100736.75;682258;28;1076;-61
2022/09/04 02:57:23;;;;;;;4.55;3.65;;;;;;;15.27;100.00;100741.78;683728;28;1279;-60
2022/09/04 02:57:53;;;;;;;4.30;3.25;;;;;;;15.35;100.00;100744.22;688651;28;4399;-64
2022/09/04 02:58:46;;;;;;;4.50;3.20;;;;;;;15.37;100.00;100741.53;690702;28;1095;-61
2022/09/04 02:59:22;;;;;;;4.80;3.58;;;;;;;15.30;100.00;100741.72;680294;28;1443;-62
2022/09/04 02:59:48;;;;;;;4.28;3.65;;;;;;;15.23;100.00;100742.75;676819;29;1448;-61